Terminal Aerodrome Forecast
Issued by NWS Albany, NY

Home | Current Version | Previous Version | Text Only | Print | Product List | Glossary On
Versions: 1 2 3 4 5 6 7 8 9 10 11 12 13 14 15 16 17 18 19 20 21 22 23
675
FTUS41 KALY 081137
TAFALB
TAF
KALB 081137Z 0812/0912 02005KT P6SM SCT035 OVC130
      TEMPO 0812/0815 BKN035 OVC100
     FM081500 03008KT P6SM OVC035
     FM081900 04009KT 6SM -SN OVC050
     FM082200 02007KT 3SM -SN BKN025 OVC035
     FM090000 VRB03KT 1 1/2SM -SN OVC015
     FM090600 VRB03KT 4SM -SN OVC025
     FM090900 VRB03KT 6SM -SN OVC025=

USA.gov is the U.S. government's official web portal to all federal, state and local government web resources and services.